Time;durP1;ratioP1;P1;durP2;ratioP2;P2;SDS_P1;SDS_P2;PMS_P1;PMS_P2;Temp;Humidity;BMP_temperature;BMP_pressure;BME280_temperature;BME280_humidity;BME280_pressure;Samples;Min_cycle;Max_cycle;Signal;HPM_P1;HPM_P2
2021/09/16 00:00:19;;;;;;;;;;;;;;;22.23;49.68;102095.91;2074994;28;937;-59
2021/09/16 00:01:19;;;;;;;;;;;;;;;22.24;49.18;102092.28;2075033;28;1410;-59
2021/09/16 00:02:19;;;;;;;;;;;;;;;22.24;49.22;102094.97;2083759;28;1021;-59
2021/09/16 00:03:19;;;;;;;;;;;;;;;22.23;49.26;102096.81;2083806;28;668;-59
2021/09/16 00:04:19;;;;;;;;;;;;;;;22.20;49.20;102095.03;2083478;28;827;-59
2021/09/16 00:05:20;;;;;;;;;;;;;;;22.22;49.80;102103.13;2083757;28;1327;-58
2021/09/16 00:06:20;;;;;;;;;;;;;;;22.24;48.75;102092.28;2083798;28;855;-59
2021/09/16 00:07:20;;;;;;;;;;;;;;;22.23;49.18;102093.19;2083638;28;1005;-59
2021/09/16 00:08:20;;;;;;;;;;;;;;;22.22;49.26;102095.03;2083811;28;890;-58
2021/09/16 00:09:20;;;;;;;;;;;;;;;22.21;49.26;102094.13;2083410;28;965;-59
2021/09/16 00:10:20;;;;;;;;;;;;;;;22.23;48.88;102093.19;2083593;28;768;-58
2021/09/16 00:11:21;;;;;;;;;;;;;;;22.20;48.92;102091.47;2074867;28;978;-59
2021/09/16 00:12:21;;;;;;;;;;;;;;;22.20;49.50;102095.03;2074925;28;1024;-58
2021/09/16 00:13:21;;;;;;;;;;;;;;;22.21;49.54;102093.25;2083746;28;902;-59
2021/09/16 00:14:21;;;;;;;;;;;;;;;22.21;49.61;102093.25;2083736;28;966;-58
2021/09/16 00:15:21;;;;;;;;;;;;;;;22.19;49.83;102092.38;2083466;28;843;-59
2021/09/16 00:16:22;;;;;;;;;;;;;;;22.19;49.02;102089.69;2083484;28;1963;-58
2021/09/16 00:17:22;;;;;;;;;;;;;;;22.18;49.12;102096.88;2083590;28;1051;-59
2021/09/16 00:18:23;;;;;;;;;;;;;;;22.18;49.00;102093.31;2083601;28;843;-59
2021/09/16 00:19:23;;;;;;;;;;;;;;;22.18;49.10;102094.19;2083686;28;772;-59
2021/09/16 00:20:23;;;;;;;;;;;;;;;22.19;48.88;102092.38;2083580;28;859;-58
2021/09/16 00:21:23;;;;;;;;;;;;;;;22.18;49.07;102091.47;2083651;28;779;-59
2021/09/16 00:22:23;;;;;;;;;;;;;;;22.17;49.56;102088.81;2083573;28;839;-58
2021/09/16 00:23:24;;;;;;;;;;;;;;;22.18;49.74;102090.59;2078365;28;1142;-59
2021/09/16 00:24:24;;;;;;;;;;;;;;;22.17;49.42;102091.53;2075527;28;811;-59
2021/09/16 00:25:24;;;;;;;;;;;;;;;22.17;49.28;102089.69;2075380;28;918;-59
2021/09/16 00:26:24;;;;;;;;;;;;;;;22.17;49.28;102091.53;2075320;28;863;-59
2021/09/16 00:27:24;;;;;;;;;;;;;;;22.17;49.48;102092.41;2075459;28;1029;-59
2021/09/16 00:28:24;;;;;;;;;;;;;;;22.16;49.30;102087.91;2075314;28;800;-59
2021/09/16 00:29:25;;;;;;;;;;;;;;;22.18;49.14;102080.69;2075150;28;986;-59
2021/09/16 00:30:25;;;;;;;;;;;;;;;22.15;49.06;102080.75;2075403;28;970;-59
2021/09/16 00:31:25;;;;;;;;;;;;;;;22.17;49.62;102083.44;2066688;28;1359;-60
2021/09/16 00:32:25;;;;;;;;;;;;;;;22.16;49.34;102087.91;2066770;28;981;-59
2021/09/16 00:33:25;;;;;;;;;;;;;;;22.17;49.43;102083.44;2075114;28;1304;-60
2021/09/16 00:34:25;;;;;;;;;;;;;;;22.16;49.53;102079.81;2075428;28;1057;-59
2021/09/16 00:35:26;;;;;;;;;;;;;;;22.15;49.56;102086.13;2075379;28;788;-60
2021/09/16 00:36:26;;;;;;;;;;;;;;;22.17;49.07;102086.13;2075143;28;1914;-60
2021/09/16 00:37:26;;;;;;;;;;;;;;;22.17;48.82;102083.44;2075511;28;1032;-59
2021/09/16 00:38:27;;;;;;;;;;;;;;;22.17;49.32;102083.44;2075435;28;883;-59
2021/09/16 00:39:27;;;;;;;;;;;;;;;22.17;49.05;102083.44;2075164;28;898;-59
2021/09/16 00:40:27;;;;;;;;;;;;;;;22.18;49.07;102085.22;2075320;28;1028;-59
2021/09/16 00:41:28;;;;;;;;;;;;;;;22.17;49.37;102078.91;2075289;28;776;-59
2021/09/16 00:42:28;;;;;;;;;;;;;;;22.22;49.23;102076.13;2075068;28;852;-60
2021/09/16 00:43:29;;;;;;;;;;;;;;;22.23;49.58;102077.91;2075422;28;788;-61
2021/09/16 00:44:29;;;;;;;;;;;;;;;22.24;49.13;102082.38;2075275;28;997;-60
2021/09/16 00:45:29;;;;;;;;;;;;;;;22.24;48.70;102079.69;2066555;28;1225;-60
2021/09/16 00:46:29;;;;;;;;;;;;;;;22.24;49.59;102081.47;2066710;28;900;-60
2021/09/16 00:47:29;;;;;;;;;;;;;;;22.24;49.22;102076.09;2075052;28;804;-58
2021/09/16 00:48:30;;;;;;;;;;;;;;;22.20;49.61;102086.94;2075185;28;973;-59
2021/09/16 00:49:30;;;;;;;;;;;;;;;22.18;49.74;102082.50;2075282;28;748;-59
2021/09/16 00:50:30;;;;;;;;;;;;;;;22.17;49.59;102078.91;2075120;28;803;-59
2021/09/16 00:51:30;;;;;;;;;;;;;;;22.17;48.79;102080.72;2075309;28;882;-59
2021/09/16 00:52:32;;;;;;;;;;;;;;;22.18;49.00;102077.97;2075245;28;764;-59
2021/09/16 00:53:33;;;;;;;;;;;;;;;22.17;49.15;102076.19;2075258;28;922;-59
2021/09/16 00:54:33;;;;;;;;;;;;;;;22.16;49.87;102074.44;2075226;28;1038;-59
2021/09/16 00:55:35;;;;;;;;;;;;;;;22.15;49.95;102077.16;2066512;28;863;-59
2021/09/16 00:56:37;;;;;;;;;;;;;;;22.15;49.02;102078.03;2066326;28;2262;-59
2021/09/16 00:57:38;;;;;;;;;;;;;;;22.16;49.24;102073.56;2075284;28;886;-59
2021/09/16 00:58:39;;;;;;;;;;;;;;;22.15;49.09;102072.66;2075245;28;866;-59
2021/09/16 00:59:40;;;;;;;;;;;;;;;22.15;49.07;102078.03;2075245;28;786;-59
2021/09/16 01:00:40;;;;;;;;;;;;;;;22.15;49.42;102079.88;2075184;28;867;-59
2021/09/16 01:01:40;;;;;;;;;;;;;;;22.14;49.13;102073.56;2075068;28;949;-59
2021/09/16 01:02:40;;;;;;;;;;;;;;;22.13;49.15;102074.50;2075512;28;906;-59
2021/09/16 01:03:40;;;;;;;;;;;;;;;22.13;49.22;102070.91;2075526;28;772;-59
2021/09/16 01:04:41;;;;;;;;;;;;;;;22.14;49.80;102080.78;2074812;28;1052;-59
2021/09/16 01:05:41;;;;;;;;;;;;;;;22.13;48.91;102079.00;2075241;28;981;-58
2021/09/16 01:06:41;;;;;;;;;;;;;;;22.13;49.15;102074.50;2075150;28;778;-59
2021/09/16 01:07:41;;;;;;;;;;;;;;;22.12;49.72;102080.81;2075232;28;838;-59
2021/09/16 01:08:42;;;;;;;;;;;;;;;22.13;49.60;102081.72;2075150;28;862;-59
2021/09/16 01:09:42;;;;;;;;;;;;;;;22.12;49.04;102075.41;2075133;28;780;-59
2021/09/16 01:10:43;;;;;;;;;;;;;;;22.11;48.96;102081.72;2075179;28;875;-59
2021/09/16 01:11:43;;;;;;;;;;;;;;;22.12;49.59;102078.09;2075064;28;974;-59
2021/09/16 01:12:46;;;;;;;;;;;;;;;22.11;49.23;102070.94;2074836;28;789;-59
2021/09/16 01:13:46;;;;;;;;;;;;;;;22.11;49.43;102075.47;2075118;28;1261;-59
2021/09/16 01:14:46;;;;;;;;;;;;;;;22.12;49.58;102077.22;2075104;28;1077;-58
2021/09/16 01:15:47;;;;;;;;;;;;;;;22.11;49.27;102073.63;2075208;28;804;-58
2021/09/16 01:16:47;;;;;;;;;;;;;;;22.12;49.59;102072.72;2075063;28;1952;-59
2021/09/16 01:17:47;;;;;;;;;;;;;;;22.11;49.62;102080.84;2074992;28;1050;-59
2021/09/16 01:18:47;;;;;;;;;;;;;;;22.10;49.20;102085.34;2075157;28;858;-59
2021/09/16 01:19:47;;;;;;;;;;;;;;;22.11;49.07;102081.72;2075122;28;1041;-59
2021/09/16 01:20:47;;;;;;;;;;;;;;;22.10;49.21;102089.88;2074361;28;787;-59
2021/09/16 01:21:48;;;;;;;;;;;;;;;22.10;49.35;102085.34;2074904;28;855;-59
2021/09/16 01:22:48;;;;;;;;;;;;;;;22.09;49.25;102072.78;2075116;28;1459;-59
2021/09/16 01:23:49;;;;;;;;;;;;;;;22.10;49.41;102077.25;2083227;28;901;-59
2021/09/16 01:24:49;;;;;;;;;;;;;;;22.09;49.28;102078.16;2083188;28;771;-58
2021/09/16 01:25:49;;;;;;;;;;;;;;;22.10;49.19;102079.94;2082953;28;1057;-59
2021/09/16 01:26:50;;;;;;;;;;;;;;;22.10;49.19;102079.94;2083206;28;985;-58
2021/09/16 01:27:51;;;;;;;;;;;;;;;22.09;49.05;102075.47;2083222;28;764;-59
2021/09/16 01:28:51;;;;;;;;;;;;;;;22.10;49.74;102076.38;2083083;28;1457;-59
2021/09/16 01:29:51;;;;;;;;;;;;;;;22.06;49.95;102079.13;2083359;28;752;-59
2021/09/16 01:30:51;;;;;;;;;;;;;;;22.08;48.98;102079.09;2083208;28;1105;-58
2021/09/16 01:31:51;;;;;;;;;;;;;;;22.08;49.15;102070.13;2083196;28;990;-59
2021/09/16 01:32:54;;;;;;;;;;;;;;;22.08;49.41;102071.00;2082969;28;1209;-58
2021/09/16 01:33:54;;;;;;;;;;;;;;;22.09;49.64;102069.19;2083020;28;1319;-59
2021/09/16 01:34:55;;;;;;;;;;;;;;;22.10;49.70;102070.97;2083224;28;760;-59
2021/09/16 01:35:55;;;;;;;;;;;;;;;22.09;49.75;102075.47;2083215;28;847;-59
2021/09/16 01:36:55;;;;;;;;;;;;;;;22.09;49.17;102067.38;2083068;28;1914;-58
2021/09/16 01:37:56;;;;;;;;;;;;;;;22.09;49.34;102063.81;2083209;28;986;-59
2021/09/16 01:38:57;;;;;;;;;;;;;;;22.08;49.04;102040.44;2083206;28;1021;-59
2021/09/16 01:39:57;;;;;;;;;;;;;;;22.07;49.11;102053.06;2083220;28;873;-59
2021/09/16 01:40:57;;;;;;;;;;;;;;;22.08;49.17;102046.72;2082873;28;989;-59
2021/09/16 01:41:57;;;;;;;;;;;;;;;22.08;49.11;102054.81;2083168;28;1422;-59
2021/09/16 01:42:57;;;;;;;;;;;;;;;22.05;49.72;102050.38;2083216;28;832;-59
2021/09/16 01:43:57;;;;;;;;;;;;;;;22.07;49.70;102053.06;2082942;28;990;-59
2021/09/16 01:44:57;;;;;;;;;;;;;;;22.05;50.02;102047.69;2083203;28;863;-59
2021/09/16 01:45:58;;;;;;;;;;;;;;;22.05;49.93;102039.59;2083156;28;982;-59
2021/09/16 01:46:58;;;;;;;;;;;;;;;22.08;49.71;102043.13;2082784;28;969;-59
2021/09/16 01:47:58;;;;;;;;;;;;;;;22.07;49.43;102047.66;2083119;28;1161;-59
2021/09/16 01:48:59;;;;;;;;;;;;;;;22.06;49.25;102045.88;2083365;28;860;-59
2021/09/16 01:49:59;;;;;;;;;;;;;;;22.07;49.15;102039.56;2083311;28;838;-59
2021/09/16 01:50:59;;;;;;;;;;;;;;;22.05;49.85;102041.41;2083156;28;843;-59
2021/09/16 01:51:59;;;;;;;;;;;;;;;22.09;49.47;102039.50;2083010;28;970;-59
2021/09/16 01:52:59;;;;;;;;;;;;;;;22.05;49.40;102039.59;2083093;28;1005;-59
2021/09/16 01:54:00;;;;;;;;;;;;;;;22.05;49.16;102033.31;2083132;28;752;-59
2021/09/16 01:55:00;;;;;;;;;;;;;;;22.05;50.18;102034.19;2082999;28;1040;-59
2021/09/16 01:56:00;;;;;;;;;;;;;;;22.05;49.92;102033.31;2082888;28;977;-59
2021/09/16 01:57:00;;;;;;;;;;;;;;;22.05;49.44;102033.31;2083039;28;1953;-59
2021/09/16 01:58:00;;;;;;;;;;;;;;;22.05;50.13;102028.78;2083174;28;1001;-59
2021/09/16 01:59:00;;;;;;;;;;;;;;;22.05;49.29;102031.50;2083038;28;779;-59
2021/09/16 02:00:02;;;;;;;;;;;;;;;22.05;49.80;102025.22;2083133;28;1053;-59
2021/09/16 02:01:03;;;;;;;;;;;;;;;22.08;49.61;102026.94;2082892;28;811;-59
2021/09/16 02:02:03;;;;;;;;;;;;;;;22.04;49.66;102031.53;2083028;28;866;-58
2021/09/16 02:03:03;;;;;;;;;;;;;;;22.06;49.06;102025.16;2083009;28;994;-59
2021/09/16 02:04:04;;;;;;;;;;;;;;;22.04;50.03;102029.72;2082862;28;823;-58
2021/09/16 02:05:04;;;;;;;;;;;;;;;22.04;49.52;102027.00;2082974;28;1061;-59
2021/09/16 02:06:04;;;;;;;;;;;;;;;22.04;49.22;102024.31;2077331;28;1371;-58
2021/09/16 02:07:04;;;;;;;;;;;;;;;22.03;49.87;102022.53;2074959;28;846;-59
2021/09/16 02:08:05;;;;;;;;;;;;;;;22.04;49.87;102018.03;2075141;28;800;-58
2021/09/16 02:09:05;;;;;;;;;;;;;;;22.04;49.58;102021.63;2075091;28;784;-59
2021/09/16 02:10:06;;;;;;;;;;;;;;;22.03;49.22;102019.84;2074930;28;883;-59
2021/09/16 02:11:07;;;;;;;;;;;;;;;22.05;49.29;102012.59;2074849;28;944;-59
2021/09/16 02:12:07;;;;;;;;;;;;;;;22.03;49.17;102017.13;2074882;28;832;-58
2021/09/16 02:13:08;;;;;;;;;;;;;;;22.03;49.92;102011.75;2074865;28;1273;-59
2021/09/16 02:14:08;;;;;;;;;;;;;;;22.03;49.82;102005.47;2074864;28;800;-59
2021/09/16 02:15:08;;;;;;;;;;;;;;;22.03;49.92;102014.44;2074922;28;1049;-59
2021/09/16 02:16:08;;;;;;;;;;;;;;;22.05;49.75;102014.44;2074905;28;1968;-59
2021/09/16 02:17:08;;;;;;;;;;;;;;;22.04;49.34;102005.41;2074764;28;1048;-59
2021/09/16 02:18:09;;;;;;;;;;;;;;;22.03;49.64;102005.47;2074914;28;788;-59
2021/09/16 02:19:09;;;;;;;;;;;;;;;22.03;49.53;102008.16;2074958;28;758;-59
2021/09/16 02:20:09;;;;;;;;;;;;;;;22.02;49.67;102009.09;2074818;28;672;-59
2021/09/16 02:21:09;;;;;;;;;;;;;;;22.02;49.80;102007.25;2074856;28;981;-59
2021/09/16 02:22:10;;;;;;;;;;;;;;;22.02;49.47;102003.69;2074628;28;776;-58
2021/09/16 02:23:10;;;;;;;;;;;;;;;22.02;49.87;102001.88;2077904;28;1493;-59
2021/09/16 02:24:10;;;;;;;;;;;;;;;22.05;49.53;102006.34;2082960;28;1127;-59
2021/09/16 02:25:10;;;;;;;;;;;;;;;22.02;49.66;102001.88;2083193;28;1084;-59
2021/09/16 02:26:10;;;;;;;;;;;;;;;22.02;49.48;102001.00;2083031;28;783;-59
2021/09/16 02:27:10;;;;;;;;;;;;;;;22.03;49.51;102008.16;2082965;28;864;-59
2021/09/16 02:28:11;;;;;;;;;;;;;;;22.03;49.58;102002.78;2082760;28;1404;-59
2021/09/16 02:29:11;;;;;;;;;;;;;;;22.02;49.85;102004.56;2082961;28;820;-59
2021/09/16 02:30:11;;;;;;;;;;;;;;;22.02;49.36;101996.47;2083002;28;886;-59
2021/09/16 02:31:11;;;;;;;;;;;;;;;22.01;49.27;101994.69;2082950;28;1297;-59
2021/09/16 02:32:11;;;;;;;;;;;;;;;22.03;49.43;101997.38;2083353;28;757;-59
2021/09/16 02:33:12;;;;;;;;;;;;;;;22.03;49.72;101990.16;2075568;28;843;-58
2021/09/16 02:34:12;;;;;;;;;;;;;;;22.01;49.08;101992.00;2075763;28;1357;-59
2021/09/16 02:35:12;;;;;;;;;;;;;;;22.03;48.62;101992.84;2084435;28;1048;-59
2021/09/16 02:36:13;;;;;;;;;;;;;;;22.03;48.99;101991.97;2084437;28;1985;-59
2021/09/16 02:37:13;;;;;;;;;;;;;;;22.02;49.45;101991.06;2084452;28;973;-58
2021/09/16 02:38:13;;;;;;;;;;;;;;;22.01;49.25;101989.31;2084501;28;784;-59
2021/09/16 02:39:13;;;;;;;;;;;;;;;22.00;49.79;101989.34;2084469;28;811;-58
2021/09/16 02:40:13;;;;;;;;;;;;;;;22.03;48.98;101991.97;2084483;28;1076;-59
2021/09/16 02:41:14;;;;;;;;;;;;;;;22.01;49.92;101989.31;2084416;28;1040;-59
2021/09/16 02:42:14;;;;;;;;;;;;;;;22.01;50.03;101988.44;2084367;28;866;-59
2021/09/16 02:43:14;;;;;;;;;;;;;;;22.00;49.16;101982.13;2084379;28;945;-59
2021/09/16 02:44:14;;;;;;;;;;;;;;;22.01;49.31;101983.91;2084481;28;775;-59
2021/09/16 02:45:14;;;;;;;;;;;;;;;22.01;49.32;101989.31;2084274;28;901;-59
2021/09/16 02:46:15;;;;;;;;;;;;;;;22.00;49.15;101992.91;2084346;28;1326;-59
2021/09/16 02:47:15;;;;;;;;;;;;;;;22.01;49.17;101993.81;2084420;28;775;-59
2021/09/16 02:48:15;;;;;;;;;;;;;;;22.01;49.18;101991.13;2084258;28;889;-59
2021/09/16 02:49:16;;;;;;;;;;;;;;;22.01;49.42;101992.00;2084454;28;978;-59
2021/09/16 02:50:16;;;;;;;;;;;;;;;21.99;49.78;101988.44;2084404;28;969;-59
2021/09/16 02:51:16;;;;;;;;;;;;;;;22.02;49.41;101990.19;2075492;28;840;-59
2021/09/16 02:52:16;;;;;;;;;;;;;;;22.00;49.68;101990.22;2075676;28;974;-59
2021/09/16 02:53:16;;;;;;;;;;;;;;;22.00;49.63;101992.91;2084219;28;772;-59
2021/09/16 02:54:17;;;;;;;;;;;;;;;22.00;49.12;101994.75;2084395;28;776;-59
2021/09/16 02:55:19;;;;;;;;;;;;;;;22.01;49.58;101999.22;2084346;28;811;-59
2021/09/16 02:56:19;;;;;;;;;;;;;;;22.00;49.48;102003.72;2084221;28;1977;-59
2021/09/16 02:57:19;;;;;;;;;;;;;;;21.99;49.99;101995.66;2084314;28;1024;-58
2021/09/16 02:58:19;;;;;;;;;;;;;;;22.00;49.59;101997.44;2084221;28;977;-59
2021/09/16 02:59:19;;;;;;;;;;;;;;;22.00;49.12;102002.84;2084289;28;906;-58
2021/09/16 03:00:20;;;;;;;;;;;;;;;21.99;49.08;102010.03;2084304;28;803;-59
2021/09/16 03:01:20;;;;;;;;;;;;;;;21.98;49.42;102001.97;2084106;28;1020;-59
2021/09/16 03:02:20;;;;;;;;;;;;;;;21.98;49.75;102000.16;2084260;28;819;-59
2021/09/16 03:03:20;;;;;;;;;;;;;;;21.99;49.43;102007.31;2084270;28;977;-58
2021/09/16 03:04:20;;;;;;;;;;;;;;;21.99;49.60;101991.13;2084280;28;717;-58
2021/09/16 03:05:21;;;;;;;;;;;;;;;21.98;49.35;102005.56;2075460;28;808;-59
2021/09/16 03:06:21;;;;;;;;;;;;;;;22.00;49.67;102011.81;2075605;28;964;-58
2021/09/16 03:07:21;;;;;;;;;;;;;;;21.99;49.30;102001.94;2084211;28;822;-59
2021/09/16 03:08:21;;;;;;;;;;;;;;;21.98;49.58;102005.56;2084267;28;1153;-58
2021/09/16 03:09:23;;;;;;;;;;;;;;;22.01;49.22;102004.63;2084059;28;985;-59
2021/09/16 03:10:23;;;;;;;;;;;;;;;21.99;49.96;102001.94;2084246;28;867;-58
2021/09/16 03:11:23;;;;;;;;;;;;;;;22.00;49.33;102001.00;2084177;28;973;-59
2021/09/16 03:12:23;;;;;;;;;;;;;;;22.00;49.81;101997.44;2084185;28;768;-59
2021/09/16 03:13:23;;;;;;;;;;;;;;;21.98;50.21;101989.38;2084199;28;891;-59
2021/09/16 03:14:23;;;;;;;;;;;;;;;21.99;49.75;101992.97;2075407;28;954;-59
2021/09/16 03:15:24;;;;;;;;;;;;;;;21.99;50.00;101996.53;2075259;28;1215;-59
2021/09/16 03:16:24;;;;;;;;;;;;;;;21.98;49.35;101997.47;2084095;28;1960;-59
2021/09/16 03:17:24;;;;;;;;;;;;;;;21.97;50.21;101994.81;2084247;28;791;-59
2021/09/16 03:18:24;;;;;;;;;;;;;;;21.98;49.79;101994.75;2075256;28;793;-59
2021/09/16 03:19:25;;;;;;;;;;;;;;;21.99;49.21;101996.53;2075518;28;816;-59
2021/09/16 03:20:26;;;;;;;;;;;;;;;21.99;49.50;101995.66;2083977;28;878;-59
2021/09/16 03:21:26;;;;;;;;;;;;;;;21.97;50.05;101984.88;2083996;28;838;-59
2021/09/16 03:22:26;;;;;;;;;;;;;;;21.99;49.54;101991.13;2084065;28;1028;-59
2021/09/16 03:23:26;;;;;;;;;;;;;;;22.00;49.33;101986.66;2083965;28;1407;-59
2021/09/16 03:24:26;;;;;;;;;;;;;;;22.00;49.90;101992.91;2084082;28;820;-59
2021/09/16 03:25:26;;;;;;;;;;;;;;;22.02;50.16;101992.91;2084226;28;1067;-59
2021/09/16 03:26:27;;;;;;;;;;;;;;;22.02;50.14;101991.06;2084143;28;769;-59
2021/09/16 03:27:27;;;;;;;;;;;;;;;22.03;49.60;101989.28;2084091;28;775;-59
2021/09/16 03:28:27;;;;;;;;;;;;;;;22.02;49.43;101985.69;2084063;28;851;-59
2021/09/16 03:29:27;;;;;;;;;;;;;;;22.03;49.40;101981.19;2083827;28;846;-59
2021/09/16 03:30:27;;;;;;;;;;;;;;;22.03;50.07;101965.88;2084146;28;855;-59
2021/09/16 03:31:27;;;;;;;;;;;;;;;22.04;49.29;101950.59;2084073;28;782;-58
2021/09/16 03:32:28;;;;;;;;;;;;;;;22.03;49.58;101941.59;2084007;28;986;-59
2021/09/16 03:33:28;;;;;;;;;;;;;;;22.02;50.21;101931.72;2082782;28;1394;-58
2021/09/16 03:34:28;;;;;;;;;;;;;;;22.04;49.36;101940.66;2075930;28;765;-59
2021/09/16 03:35:28;;;;;;;;;;;;;;;22.04;49.50;101946.06;2075887;28;965;-58
2021/09/16 03:36:28;;;;;;;;;;;;;;;22.05;49.50;101942.44;2075912;28;1914;-59
2021/09/16 03:37:28;;;;;;;;;;;;;;;22.04;50.25;101927.19;2075688;28;819;-59
2021/09/16 03:38:29;;;;;;;;;;;;;;;22.08;50.00;101929.81;2075877;28;772;-59
2021/09/16 03:39:29;;;;;;;;;;;;;;;22.08;49.33;101940.59;2075720;28;855;-59
2021/09/16 03:40:29;;;;;;;;;;;;;;;22.05;49.86;101937.06;2075807;28;989;-59
2021/09/16 03:41:29;;;;;;;;;;;;;;;22.08;49.15;101948.69;2075917;28;1284;-59
2021/09/16 03:42:31;;;;;;;;;;;;;;;22.08;49.69;101937.91;2075492;28;776;-59
2021/09/16 03:43:31;;;;;;;;;;;;;;;22.09;49.99;101942.38;2075500;28;824;-59
2021/09/16 03:44:31;;;;;;;;;;;;;;;22.08;50.38;101940.59;2074608;28;1278;-59
2021/09/16 03:45:32;;;;;;;;;;;;;;;22.08;49.38;101941.47;2075200;28;787;-59
2021/09/16 03:46:32;;;;;;;;;;;;;;;22.09;49.20;101942.38;2075820;28;977;-59
2021/09/16 03:47:32;;;;;;;;;;;;;;;22.08;50.05;101932.50;2075057;28;796;-59
2021/09/16 03:48:32;;;;;;;;;;;;;;;22.06;49.60;101930.72;2075082;28;855;-59
2021/09/16 03:49:38;;;;;;;;;;;;;;;22.09;49.36;101935.16;2075739;28;1026;-59
2021/09/16 03:50:38;;;;;;;;;;;;;;;22.10;49.75;101934.22;2075739;28;922;-59
2021/09/16 03:51:38;;;;;;;;;;;;;;;22.10;49.57;101931.53;2075744;28;769;-59
2021/09/16 03:52:39;;;;;;;;;;;;;;;22.09;49.98;101926.19;2075836;28;1029;-59
2021/09/16 03:53:39;;;;;;;;;;;;;;;22.09;49.69;101920.78;2075058;28;792;-59
2021/09/16 03:54:39;;;;;;;;;;;;;;;22.08;49.48;101921.72;2075185;28;843;-58
2021/09/16 03:55:39;;;;;;;;;;;;;;;22.09;49.63;101921.66;2075664;28;807;-59
2021/09/16 03:56:39;;;;;;;;;;;;;;;22.10;50.37;101920.75;2075630;28;1959;-59
2021/09/16 03:57:40;;;;;;;;;;;;;;;22.09;50.21;101924.38;2075732;28;642;-59
2021/09/16 03:58:40;;;;;;;;;;;;;;;22.11;49.96;101924.34;2075563;28;747;-58
2021/09/16 03:59:40;;;;;;;;;;;;;;;22.09;50.22;101918.97;2075677;28;792;-59
2021/09/16 04:00:40;;;;;;;;;;;;;;;22.09;49.63;101918.97;2075728;28;1009;-59
2021/09/16 04:01:40;;;;;;;;;;;;;;;22.12;50.17;101918.03;2075674;28;1095;-59
2021/09/16 04:02:40;;;;;;;;;;;;;;;22.14;49.03;101924.28;2075639;28;961;-59
2021/09/16 04:03:41;;;;;;;;;;;;;;;22.58;48.31;101919.66;2075822;28;847;-59
2021/09/16 04:04:41;;;;;;;;;;;;;;;22.72;47.83;101919.28;2075526;28;886;-59
2021/09/16 04:05:41;;;;;;;;;;;;;;;22.79;48.33;101911.94;2075703;28;772;-59
2021/09/16 04:06:41;;;;;;;;;;;;;;;22.88;47.52;101914.41;2075654;28;803;-59
2021/09/16 04:07:42;;;;;;;;;;;;;;;22.95;47.27;101902.50;2075626;28;986;-59
2021/09/16 04:08:42;;;;;;;;;;;;;;;23.02;47.49;101903.22;2075558;28;819;-59
2021/09/16 04:09:42;;;;;;;;;;;;;;;23.08;47.01;101894.03;2075567;28;1206;-59
2021/09/16 04:10:42;;;;;;;;;;;;;;;23.12;46.70;101895.72;2075590;28;827;-59
2021/09/16 04:11:42;;;;;;;;;;;;;;;23.14;46.45;101893.88;2075318;28;997;-59
2021/09/16 04:12:43;;;;;;;;;;;;;;;23.19;46.96;101893.75;2075339;28;820;-59
2021/09/16 04:13:43;;;;;;;;;;;;;;;23.23;46.40;101893.66;2075372;28;882;-59
2021/09/16 04:14:43;;;;;;;;;;;;;;;23.26;46.39;101891.78;2075312;28;815;-59
2021/09/16 04:15:43;;;;;;;;;;;;;;;23.30;46.94;101897.06;2075531;28;843;-59
2021/09/16 04:16:43;;;;;;;;;;;;;;;23.32;46.90;101897.03;2075481;28;1938;-59
2021/09/16 04:17:43;;;;;;;;;;;;;;;23.33;46.06;101894.25;2075415;28;986;-59
2021/09/16 04:18:43;;;;;;;;;;;;;;;23.36;46.33;101898.72;2075579;28;803;-59
2021/09/16 04:19:44;;;;;;;;;;;;;;;23.38;46.38;101902.25;2075595;28;744;-59
2021/09/16 04:20:44;;;;;;;;;;;;;;;23.40;45.96;101897.69;2075466;28;897;-59
2021/09/16 04:21:44;;;;;;;;;;;;;;;23.42;46.24;101898.53;2075544;28;1068;-58
2021/09/16 04:22:44;;;;;;;;;;;;;;;23.43;46.52;101899.41;2075712;28;982;-59
2021/09/16 04:23:44;;;;;;;;;;;;;;;23.43;46.78;101894.91;2083318;28;1218;-58
2021/09/16 04:24:44;;;;;;;;;;;;;;;23.43;46.16;101897.63;2083665;28;1029;-59
2021/09/16 04:25:45;;;;;;;;;;;;;;;23.43;46.30;101894.91;2083486;28;779;-59
2021/09/16 04:26:45;;;;;;;;;;;;;;;23.45;46.76;101894.84;2083670;28;996;-59
2021/09/16 04:27:45;;;;;;;;;;;;;;;23.48;45.96;101900.16;2083750;28;831;-59
2021/09/16 04:28:45;;;;;;;;;;;;;;;23.47;46.30;101898.41;2083629;28;895;-59
2021/09/16 04:29:46;;;;;;;;;;;;;;;23.48;46.48;101900.16;2083658;28;989;-59
2021/09/16 04:30:46;;;;;;;;;;;;;;;23.49;45.84;101899.25;2083298;28;760;-59
2021/09/16 04:31:46;;;;;;;;;;;;;;;23.48;45.97;101909.19;2083640;28;1404;-59
2021/09/16 04:32:46;;;;;;;;;;;;;;;23.49;46.08;101904.66;2083578;28;790;-59
2021/09/16 04:33:46;;;;;;;;;;;;;;;23.49;46.53;101904.66;2083376;28;1492;-59
2021/09/16 04:34:46;;;;;;;;;;;;;;;23.48;46.69;101911.00;2074796;28;1010;-59
2021/09/16 04:35:47;;;;;;;;;;;;;;;23.50;45.88;101915.44;2074883;28;1020;-59
2021/09/16 04:36:47;;;;;;;;;;;;;;;23.51;46.17;101917.22;2083461;28;1914;-59
2021/09/16 04:37:47;;;;;;;;;;;;;;;23.51;46.30;101911.81;2083592;28;1040;-59
2021/09/16 04:38:47;;;;;;;;;;;;;;;23.53;46.42;101919.84;2083096;28;784;-59
2021/09/16 04:39:47;;;;;;;;;;;;;;;23.52;46.47;101912.69;2083499;28;807;-59
2021/09/16 04:40:47;;;;;;;;;;;;;;;23.53;46.27;101915.34;2083584;28;883;-59
2021/09/16 04:41:48;;;;;;;;;;;;;;;23.52;45.88;101913.56;2083255;28;982;-59
2021/09/16 04:42:48;;;;;;;;;;;;;;;23.54;46.28;101903.59;2083414;28;942;-59
2021/09/16 04:43:48;;;;;;;;;;;;;;;23.54;45.80;101911.72;2083471;28;1413;-59
2021/09/16 04:44:48;;;;;;;;;;;;;;;23.55;45.94;101909.88;2083584;28;1052;-59
2021/09/16 04:45:48;;;;;;;;;;;;;;;23.54;46.72;101911.72;2083472;28;768;-59
2021/09/16 04:46:49;;;;;;;;;;;;;;;23.57;45.84;101910.72;2083522;28;772;-58
2021/09/16 04:47:49;;;;;;;;;;;;;;;23.56;46.67;101908.03;2083451;28;764;-59
2021/09/16 04:48:49;;;;;;;;;;;;;;;23.57;46.00;101908.03;2083538;28;1156;-59
2021/09/16 04:49:49;;;;;;;;;;;;;;;23.58;45.96;101912.50;2083229;28;866;-59
2021/09/16 04:50:49;;;;;;;;;;;;;;;23.58;46.55;101906.19;2083429;28;1040;-59
2021/09/16 04:51:50;;;;;;;;;;;;;;;23.59;46.12;101907.97;2083452;28;779;-59
2021/09/16 04:52:50;;;;;;;;;;;;;;;23.60;46.48;101909.72;2083328;28;1134;-58
2021/09/16 04:53:50;;;;;;;;;;;;;;;23.59;46.76;101913.38;2083522;28;1153;-59
2021/09/16 04:54:51;;;;;;;;;;;;;;;23.61;46.52;101906.09;2083449;28;797;-59
2021/09/16 04:55:51;;;;;;;;;;;;;;;23.62;46.42;101899.75;2083367;28;1005;-59
2021/09/16 04:56:51;;;;;;;;;;;;;;;23.62;46.25;101914.19;2083396;28;1955;-59
2021/09/16 04:57:52;;;;;;;;;;;;;;;23.64;46.16;101906.00;2083292;28;1052;-59
2021/09/16 04:58:52;;;;;;;;;;;;;;;23.64;46.86;101912.31;2083298;28;1044;-59
2021/09/16 04:59:54;;;;;;;;;;;;;;;23.66;46.06;101912.25;2083422;28;1208;-59
2021/09/16 05:00:54;;;;;;;;;;;;;;;23.64;45.94;101906.91;2083243;28;1136;-59
2021/09/16 05:01:54;;;;;;;;;;;;;;;23.66;46.34;101912.25;2083429;28;823;-59
2021/09/16 05:02:54;;;;;;;;;;;;;;;23.67;46.32;101911.31;2083382;28;867;-59
2021/09/16 05:03:54;;;;;;;;;;;;;;;23.66;46.47;101913.16;2083237;28;871;-59
2021/09/16 05:04:55;;;;;;;;;;;;;;;23.67;46.58;101906.81;2083341;28;981;-59
2021/09/16 05:05:55;;;;;;;;;;;;;;;23.70;46.76;101905.81;2083363;28;819;-59
2021/09/16 05:06:55;;;;;;;;;;;;;;;23.68;46.56;101905.00;2083262;28;1207;-59
2021/09/16 05:07:55;;;;;;;;;;;;;;;23.69;46.35;101913.06;2083392;28;800;-58
2021/09/16 05:08:55;;;;;;;;;;;;;;;23.69;46.63;101904.06;2083342;28;978;-59
2021/09/16 05:09:55;;;;;;;;;;;;;;;23.70;46.56;101900.41;2083343;28;784;-58
2021/09/16 05:10:56;;;;;;;;;;;;;;;23.72;46.55;101909.38;2083340;28;768;-59
2021/09/16 05:11:56;;;;;;;;;;;;;;;23.72;46.33;101909.38;2083233;28;839;-59
2021/09/16 05:12:56;;;;;;;;;;;;;;;23.73;46.58;101896.75;2083358;28;982;-59
2021/09/16 05:13:56;;;;;;;;;;;;;;;23.73;46.32;101899.47;2083227;28;768;-58
2021/09/16 05:14:57;;;;;;;;;;;;;;;23.74;46.41;101906.63;2083310;28;837;-59
2021/09/16 05:15:57;;;;;;;;;;;;;;;23.73;46.46;101902.16;2083319;28;858;-58